WARR/SUB METAR and TAF weather

Enter ICAO airport designator
Station Type Date Time Source
WARR METAR 2022/06/27 17:00 UTC NOAA

WARR 271700Z 22003KT 6000 FEW020 26/24 Q1010 NOSIG


Station Type Date Time Source
WARR Decoded METAR 2022/06/27 17:00 UTC NOAA

Station name not available
Jun 27, 2022 - 01:00 PM EDT / 2022.06.27 1700 UTC
Wind: from the SW (220 degrees) at 3 MPH (3 KT):0
Visibility: 3 mile(s):0
Sky conditions: mostly clear
Temperature: 78 F (26 C)
Dew Point: 75 F (24 C)
Relative Humidity: 88%
Pressure (altimeter): 29.83 in. Hg (1010 hPa)
ob: WARR 271700Z 22003KT 6000 FEW020 26/24 Q1010 NOSIG
cycle: 17

Station Type Date Time Source
WARR TAF 2022/06/27 18:06 UTC NOAA

TAF WARR 271700Z 2718/2818 24005KT 5000 HZ FEW020
BECMG 2800/2802 08012KT 9999 NSW

Example: see airport list